createdAt,value
2018-09-12T00:01:00.179Z,60.64
2018-09-12T00:03:28.828Z,60.41
2018-09-12T00:05:57.713Z,60.46
2018-09-12T00:08:26.829Z,60.56
2018-09-12T00:10:55.583Z,60.86
2018-09-12T00:13:24.307Z,60.90
2018-09-12T00:15:53.270Z,60.47
2018-09-12T00:18:22.458Z,60.62
2018-09-12T00:20:51.371Z,61.08
2018-09-12T00:23:20.267Z,61.03
2018-09-12T00:25:49.299Z,61.32
2018-09-12T00:28:18.459Z,61.01
2018-09-12T00:30:47.094Z,61.04
2018-09-12T00:33:16.119Z,61.12
2018-09-12T00:35:45.062Z,61.43
2018-09-12T00:38:13.702Z,61.35
2018-09-12T00:40:42.971Z,61.25
2018-09-12T00:43:11.838Z,61.52
2018-09-12T00:45:40.806Z,60.79
2018-09-12T00:48:10.119Z,61.44
2018-09-12T00:50:38.775Z,61.20
2018-09-12T00:53:07.584Z,61.43
2018-09-12T00:55:36.690Z,60.97
2018-09-12T00:58:05.344Z,61.71
2018-09-12T01:00:34.020Z,60.68
2018-09-12T01:03:03.015Z,60.46
2018-09-12T01:05:31.907Z,60.86
2018-09-12T01:08:01.108Z,60.29
2018-09-12T01:10:30.052Z,61.26
2018-09-12T01:12:59.203Z,60.63
2018-09-12T01:15:28.118Z,60.70
2018-09-12T01:17:57.303Z,60.71
2018-09-12T01:20:26.074Z,61.34
2018-09-12T01:22:54.689Z,60.80
2018-09-12T01:25:23.448Z,61.13
2018-09-12T01:27:57.795Z,61.43
2018-09-12T01:30:26.992Z,60.90
2018-09-12T01:32:57.176Z,60.61
2018-09-12T01:35:26.263Z,60.83
2018-09-12T01:37:55.501Z,60.29
2018-09-12T01:40:24.300Z,60.27
2018-09-12T01:42:52.974Z,59.77
2018-09-12T01:45:21.997Z,59.56
2018-09-12T01:47:51.022Z,58.92
2018-09-12T01:50:20.089Z,59.32
2018-09-12T01:52:49.492Z,60.69
2018-09-12T01:55:18.623Z,61.23
2018-09-12T01:57:47.365Z,61.55
2018-09-12T02:00:18.273Z,62.12
2018-09-12T02:02:47.900Z,61.67
2018-09-12T02:05:16.927Z,61.67
2018-09-12T02:07:46.222Z,62.12
2018-09-12T02:10:15.344Z,61.78
2018-09-12T02:12:44.278Z,61.54
2018-09-12T02:15:13.303Z,60.97
2018-09-12T02:17:42.276Z,61.20
2018-09-12T02:20:11.490Z,62.09
2018-09-12T02:22:40.308Z,62.12
2018-09-12T02:25:09.156Z,63.09
2018-09-12T02:27:37.839Z,64.08
2018-09-12T02:30:06.925Z,62.80
2018-09-12T02:32:35.735Z,62.64
2018-09-12T02:35:04.807Z,62.79
2018-09-12T02:37:33.728Z,63.10
2018-09-12T02:40:02.659Z,63.92
2018-09-12T02:42:31.938Z,65.27
2018-09-12T02:45:00.957Z,64.98
2018-09-12T02:47:35.146Z,65.87
2018-09-12T02:50:04.971Z,66.11
2018-09-12T02:52:33.915Z,66.48
2018-09-12T02:55:03.160Z,66.19
2018-09-12T02:57:32.206Z,66.51
2018-09-12T03:00:00.860Z,66.05
2018-09-12T03:02:31.138Z,66.66
2018-09-12T03:04:59.931Z,67.08
2018-09-12T03:07:29.251Z,67.36
2018-09-12T03:09:58.430Z,66.67
2018-09-12T03:12:27.727Z,66.64
2018-09-12T03:14:56.515Z,67.31
2018-09-12T03:17:25.744Z,68.40
2018-09-12T03:19:54.723Z,67.96
2018-09-12T03:22:23.729Z,68.05
2018-09-12T03:24:52.981Z,67.70
2018-09-12T03:27:21.796Z,67.81
2018-09-12T03:29:50.470Z,67.70
2018-09-12T03:32:19.197Z,67.26
2018-09-12T03:34:48.010Z,66.73
2018-09-12T03:37:16.965Z,65.25
2018-09-12T03:39:46.383Z,64.81
2018-09-12T03:42:15.296Z,65.22
2018-09-12T03:44:44.094Z,65.81
2018-09-12T03:47:13.105Z,66.73
2018-09-12T03:49:42.040Z,68.27
2018-09-12T03:52:10.966Z,66.81
2018-09-12T03:54:39.660Z,65.23
2018-09-12T03:57:08.355Z,65.78
2018-09-12T03:59:37.015Z,66.51
2018-09-12T04:02:06.123Z,65.91
2018-09-12T04:04:34.968Z,65.48
2018-09-12T04:07:03.847Z,65.51
2018-09-12T04:09:33.104Z,66.04
2018-09-12T04:12:01.949Z,66.67
2018-09-12T04:14:30.687Z,67.13
2018-09-12T04:16:59.665Z,66.21
2018-09-12T04:19:28.833Z,66.81
2018-09-12T04:21:57.925Z,66.17
2018-09-12T04:24:27.042Z,67.39
2018-09-12T04:26:55.606Z,66.06
2018-09-12T04:29:24.325Z,66.77
2018-09-12T04:31:53.798Z,66.54
2018-09-12T04:34:23.046Z,67.21
2018-09-12T04:36:52.104Z,66.76
2018-09-12T04:39:21.567Z,68.44
2018-09-12T04:41:50.165Z,68.24
2018-09-12T04:44:19.065Z,67.81
2018-09-12T04:46:48.416Z,68.63
2018-09-12T04:49:17.083Z,68.79
2018-09-12T04:51:46.271Z,68.38
2018-09-12T04:54:15.351Z,68.53
2018-09-12T04:56:44.011Z,67.84
2018-09-12T04:59:12.823Z,67.73
2018-09-12T05:01:41.970Z,67.20
2018-09-12T05:04:11.017Z,66.75
2018-09-12T05:06:39.787Z,66.30
2018-09-12T05:09:10.651Z,66.32
2018-09-12T05:11:39.505Z,65.31
2018-09-12T05:14:08.375Z,64.61
2018-09-12T05:16:37.824Z,65.10
2018-09-12T05:19:07.138Z,64.76
2018-09-12T05:21:36.266Z,64.27
2018-09-12T05:24:05.027Z,64.02
2018-09-12T05:26:34.034Z,64.32
2018-09-12T05:29:02.864Z,63.67
2018-09-12T05:31:32.179Z,63.38
2018-09-12T05:34:01.314Z,63.71
2018-09-12T05:36:30.354Z,62.81
2018-09-12T05:38:59.843Z,61.88
2018-09-12T05:41:28.916Z,61.71
2018-09-12T05:43:58.034Z,61.82
2018-09-12T05:46:27.070Z,61.77
2018-09-12T05:48:56.174Z,61.78
2018-09-12T05:51:24.805Z,61.08
2018-09-12T05:53:53.986Z,60.84
2018-09-12T05:56:22.805Z,60.14
2018-09-12T05:58:51.434Z,59.65
2018-09-12T06:01:20.825Z,58.40
2018-09-12T06:03:49.769Z,57.07
2018-09-12T06:06:18.527Z,57.45
2018-09-12T06:08:47.806Z,57.21
2018-09-12T06:11:16.539Z,56.00
2018-09-12T06:13:45.257Z,55.72
2018-09-12T06:16:14.767Z,54.81
2018-09-12T06:18:43.709Z,54.69
2018-09-12T06:21:12.411Z,54.10
2018-09-12T06:23:41.068Z,53.84
2018-09-12T06:26:09.961Z,53.33
2018-09-12T06:28:39.545Z,53.37
2018-09-12T06:31:09.003Z,52.97
2018-09-12T06:33:38.302Z,52.07
2018-09-12T06:36:07.795Z,52.43
2018-09-12T06:38:37.066Z,50.60
2018-09-12T06:41:06.449Z,50.15
2018-09-12T06:43:35.823Z,49.97
2018-09-12T06:46:04.974Z,50.00
2018-09-12T06:48:34.307Z,49.24
2018-09-12T06:51:03.277Z,49.46
2018-09-12T06:53:32.272Z,49.52
2018-09-12T06:56:01.535Z,49.73
2018-09-12T06:58:31.009Z,48.85
2018-09-12T07:01:01.786Z,48.35
2018-09-12T07:03:31.144Z,46.45
2018-09-12T07:06:00.415Z,45.91
2018-09-12T07:08:29.669Z,45.17
2018-09-12T07:10:58.921Z,44.80
2018-09-12T07:13:28.359Z,44.71
2018-09-12T07:15:58.020Z,43.95
2018-09-12T07:18:27.908Z,44.46
2018-09-12T07:20:57.359Z,44.92
2018-09-12T07:23:26.745Z,44.73
2018-09-12T07:25:55.815Z,43.56
2018-09-12T07:28:25.238Z,43.72
2018-09-12T07:30:55.018Z,42.47
2018-09-12T07:33:24.539Z,41.75
2018-09-12T07:35:54.067Z,41.46
2018-09-12T07:38:23.865Z,40.68
2018-09-12T07:40:53.194Z,40.30
2018-09-12T07:43:22.510Z,39.73
2018-09-12T07:45:51.839Z,39.69
2018-09-12T07:48:21.088Z,39.14
2018-09-12T07:50:50.925Z,38.09
2018-09-12T07:53:20.161Z,38.39
2018-09-12T07:55:49.398Z,37.62
2018-09-12T07:58:18.746Z,35.63
2018-09-12T08:00:47.996Z,36.60
2018-09-12T08:03:18.102Z,35.75
2018-09-12T08:05:47.563Z,35.55
2018-09-12T08:08:17.079Z,35.60
2018-09-12T08:10:46.431Z,35.54
2018-09-12T08:13:15.790Z,34.74
2018-09-12T08:15:45.390Z,33.98
2018-09-12T08:18:14.891Z,33.57
2018-09-12T08:20:43.897Z,33.89
2018-09-12T08:23:13.013Z,33.73
2018-09-12T08:25:42.495Z,33.48
2018-09-12T08:28:11.742Z,33.84
2018-09-12T08:30:41.081Z,33.39
2018-09-12T08:33:10.382Z,33.35
2018-09-12T08:35:39.702Z,33.14
2018-09-12T08:38:09.015Z,32.85
2018-09-12T08:40:38.254Z,32.34
2018-09-12T08:43:07.592Z,32.97
2018-09-12T08:45:37.793Z,32.90
2018-09-12T08:48:07.323Z,32.65
2018-09-12T08:50:36.282Z,32.89
2018-09-12T08:53:05.403Z,32.39
2018-09-12T08:55:34.822Z,31.82
2018-09-12T08:58:04.186Z,31.02
2018-09-12T09:00:35.757Z,31.54
2018-09-12T09:03:06.696Z,30.99
2018-09-12T09:05:35.979Z,30.98
2018-09-12T09:08:05.358Z,30.52
2018-09-12T09:10:34.617Z,30.05
2018-09-12T09:13:04.031Z,29.97
2018-09-12T09:15:33.073Z,29.96
2018-09-12T09:18:02.340Z,29.57
2018-09-12T09:20:31.582Z,29.77
2018-09-12T09:23:00.568Z,29.65
2018-09-12T09:25:30.279Z,27.89
2018-09-12T09:27:59.541Z,28.74
2018-09-12T09:30:31.062Z,27.63
2018-09-12T09:33:00.682Z,28.28
2018-09-12T09:35:30.660Z,28.46
2018-09-12T09:37:59.871Z,27.92
2018-09-12T09:40:29.163Z,27.39
2018-09-12T09:42:58.360Z,27.39
2018-09-12T09:45:27.616Z,25.37
2018-09-12T09:47:56.885Z,26.07
2018-09-12T09:50:25.926Z,24.88
2018-09-12T09:52:55.222Z,24.73
2018-09-12T09:55:24.363Z,24.52
2018-09-12T09:57:54.523Z,25.82
2018-09-12T10:00:29.045Z,24.16
2018-09-12T10:03:03.189Z,24.27
2018-09-12T10:05:37.291Z,24.57
2018-09-12T10:08:11.575Z,23.85
2018-09-12T10:10:41.702Z,23.74
2018-09-12T10:13:11.114Z,23.65
2018-09-12T10:15:40.638Z,25.26
2018-09-12T10:18:09.886Z,23.99
2018-09-12T10:20:39.232Z,24.77
2018-09-12T10:23:08.258Z,23.88
2018-09-12T10:25:37.682Z,24.19
2018-09-12T10:28:07.157Z,24.25
2018-09-12T10:30:36.607Z,24.13
2018-09-12T10:33:06.160Z,24.39
2018-09-12T10:35:35.708Z,25.10
2018-09-12T10:38:05.045Z,23.74
2018-09-12T10:40:34.035Z,22.00
2018-09-12T10:43:05.434Z,23.10
2018-09-12T10:45:34.728Z,23.90
2018-09-12T10:48:03.741Z,23.11
2018-09-12T10:50:32.695Z,22.49
2018-09-12T10:53:01.684Z,22.70
2018-09-12T10:55:30.950Z,22.39
2018-09-12T10:58:00.446Z,22.71
2018-09-12T11:00:29.875Z,22.33
2018-09-12T11:02:59.142Z,23.70
2018-09-12T11:05:28.506Z,22.21
2018-09-12T11:07:57.763Z,23.53
2018-09-12T11:10:27.158Z,23.47
2018-09-12T11:12:57.000Z,22.33
2018-09-12T11:15:26.323Z,22.13
2018-09-12T11:17:55.388Z,21.84
2018-09-12T11:20:25.283Z,21.59
2018-09-12T11:22:54.374Z,21.14
2018-09-12T11:25:23.778Z,20.28
2018-09-12T11:27:52.959Z,20.07
2018-09-12T11:30:22.285Z,20.73
2018-09-12T11:32:52.243Z,20.38
2018-09-12T11:35:21.583Z,19.77
2018-09-12T11:37:50.809Z,20.27
2018-09-12T11:40:20.151Z,20.04
2018-09-12T11:42:49.812Z,21.35
2018-09-12T11:45:19.340Z,21.76
2018-09-12T11:47:48.305Z,21.29
2018-09-12T11:50:17.316Z,21.70
2018-09-12T11:52:46.537Z,22.23
2018-09-12T11:55:16.079Z,22.27
2018-09-12T11:57:45.231Z,22.03
2018-09-12T12:00:14.527Z,22.36
2018-09-12T12:02:43.955Z,22.00
2018-09-12T12:05:13.860Z,21.49
2018-09-12T12:07:43.235Z,20.65
2018-09-12T12:10:12.788Z,21.22
2018-09-12T12:12:42.038Z,21.31
2018-09-12T12:15:11.818Z,20.24
2018-09-12T12:17:41.403Z,21.30
2018-09-12T12:20:10.390Z,20.10
2018-09-12T12:22:39.735Z,19.09
2018-09-12T12:25:09.365Z,18.04
2018-09-12T12:27:38.702Z,18.16
2018-09-12T12:30:07.878Z,18.10
2018-09-12T12:32:37.128Z,18.01
2018-09-12T12:35:06.365Z,17.75
2018-09-12T12:37:35.704Z,17.95
2018-09-12T12:40:05.087Z,18.08
2018-09-12T12:42:34.429Z,18.42
2018-09-12T12:45:04.179Z,19.32
2018-09-12T12:47:33.172Z,19.78
2018-09-12T12:50:02.130Z,19.12
2018-09-12T12:52:31.541Z,20.88
2018-09-12T12:55:00.702Z,21.59
2018-09-12T12:57:29.882Z,21.46
2018-09-12T12:59:59.273Z,20.89
2018-09-12T13:02:28.579Z,20.38
2018-09-12T13:04:57.926Z,19.42
2018-09-12T13:07:27.190Z,20.51
2018-09-12T13:09:56.547Z,19.79
2018-09-12T13:12:25.990Z,19.24
2018-09-12T13:14:55.276Z,19.51
2018-09-12T13:17:24.247Z,19.30
2018-09-12T13:19:53.617Z,19.08
2018-09-12T13:22:23.059Z,19.04
2018-09-12T13:24:52.191Z,19.49
2018-09-12T13:27:21.558Z,19.19
2018-09-12T13:29:50.781Z,19.67
2018-09-12T13:32:20.743Z,19.79
2018-09-12T13:34:49.970Z,19.80
2018-09-12T13:37:19.254Z,19.93
2018-09-12T13:39:48.520Z,19.45
2018-09-12T13:42:17.511Z,19.17
2018-09-12T13:44:46.544Z,19.86
2018-09-12T13:47:15.546Z,20.77
2018-09-12T13:49:44.978Z,21.05
2018-09-12T13:52:14.212Z,21.96
2018-09-12T13:54:43.418Z,22.00
2018-09-12T13:57:12.422Z,21.77
2018-09-12T13:59:41.971Z,22.09
2018-09-12T14:02:11.233Z,22.01
2018-09-12T14:04:40.555Z,23.29
2018-09-12T14:07:09.879Z,22.67
2018-09-12T14:09:39.260Z,22.89
2018-09-12T14:12:08.141Z,22.66
2018-09-12T14:14:36.999Z,23.20
2018-09-12T14:17:05.902Z,23.24
2018-09-12T14:19:34.975Z,23.53
2018-09-12T14:22:04.154Z,23.76
2018-09-12T14:24:33.499Z,24.57
2018-09-12T14:27:02.615Z,24.49
2018-09-12T14:29:31.795Z,25.48
2018-09-12T14:32:01.096Z,24.78
2018-09-12T14:34:30.231Z,24.95
2018-09-12T14:36:59.446Z,24.45
2018-09-12T14:39:28.802Z,24.24
2018-09-12T14:41:57.706Z,23.98
2018-09-12T14:44:26.554Z,23.47
2018-09-12T14:46:55.694Z,23.87
2018-09-12T14:49:24.637Z,24.22
2018-09-12T14:51:53.506Z,24.65
2018-09-12T14:54:22.391Z,24.37
2018-09-12T14:56:51.303Z,23.25
2018-09-12T14:59:20.382Z,22.93
2018-09-12T15:01:49.403Z,20.94
2018-09-12T15:04:18.303Z,20.46
2018-09-12T15:06:47.476Z,20.73
2018-09-12T15:09:16.734Z,20.75
2018-09-12T15:11:45.476Z,20.82
2018-09-12T15:14:14.249Z,20.60
2018-09-12T15:16:43.266Z,20.87
2018-09-12T15:19:12.248Z,20.21
2018-09-12T15:21:41.102Z,19.62
2018-09-12T15:24:10.092Z,19.77
2018-09-12T15:26:39.571Z,21.02
2018-09-12T15:29:09.167Z,21.01
2018-09-12T15:31:38.317Z,20.90
2018-09-12T15:34:07.551Z,21.62
2018-09-12T15:36:36.650Z,22.10
2018-09-12T15:39:08.395Z,22.44
2018-09-12T15:41:37.243Z,22.21
2018-09-12T15:44:06.206Z,22.43
2018-09-12T15:46:35.765Z,22.64
2018-09-12T15:49:05.011Z,23.54
2018-09-12T15:51:34.195Z,23.60
2018-09-12T15:54:03.460Z,24.32
2018-09-12T15:56:32.655Z,24.54
2018-09-12T15:59:02.092Z,25.25
2018-09-12T16:01:31.242Z,25.26
2018-09-12T16:04:00.498Z,25.37
2018-09-12T16:06:29.716Z,25.86
2018-09-12T16:08:58.651Z,26.50
2018-09-12T16:11:27.574Z,26.47
2018-09-12T16:13:56.356Z,26.91
2018-09-12T16:16:25.438Z,26.44
2018-09-12T16:18:54.423Z,25.21
2018-09-12T16:21:23.909Z,26.00
2018-09-12T16:23:53.338Z,25.68
2018-09-12T16:26:22.664Z,25.97
2018-09-12T16:28:51.919Z,26.50
2018-09-12T16:31:21.233Z,26.60
2018-09-12T16:33:50.493Z,27.25
2018-09-12T16:36:19.841Z,27.87
2018-09-12T16:38:48.762Z,27.41
2018-09-12T16:41:17.554Z,28.49
2018-09-12T16:43:46.576Z,28.07
2018-09-12T16:46:15.722Z,29.36
2018-09-12T16:48:45.123Z,28.81
2018-09-12T16:51:14.296Z,29.67
2018-09-12T16:53:43.523Z,29.63
2018-09-12T16:56:12.533Z,29.84
2018-09-12T16:58:41.720Z,30.18
2018-09-12T17:01:10.988Z,30.59
2018-09-12T17:03:40.196Z,30.90
2018-09-12T17:06:09.162Z,31.66
2018-09-12T17:08:37.953Z,31.82
2018-09-12T17:11:06.890Z,31.81
2018-09-12T17:13:36.215Z,32.60
2018-09-12T17:16:05.632Z,32.72
2018-09-12T17:18:34.850Z,33.03
2018-09-12T17:21:04.156Z,33.45
2018-09-12T17:23:33.378Z,34.97
2018-09-12T17:26:02.487Z,34.38
2018-09-12T17:28:32.059Z,34.17
2018-09-12T17:31:01.299Z,34.90
2018-09-12T17:33:30.595Z,36.12
2018-09-12T17:35:59.535Z,37.60
2018-09-12T17:38:28.506Z,37.51
2018-09-12T17:40:57.526Z,37.25
2018-09-12T17:43:26.607Z,37.82
2018-09-12T17:45:55.473Z,37.15
2018-09-12T17:48:24.336Z,37.39
2018-09-12T17:50:53.198Z,37.68
2018-09-12T17:53:22.561Z,37.31
2018-09-12T17:55:51.725Z,37.05
2018-09-12T17:58:21.095Z,37.28
2018-09-12T18:00:50.875Z,37.92
2018-09-12T18:03:20.288Z,38.02
2018-09-12T18:05:49.225Z,38.50
2018-09-12T18:08:18.748Z,38.51
2018-09-12T18:10:48.192Z,39.08
2018-09-12T18:13:17.486Z,39.96
2018-09-12T18:15:46.848Z,40.20
2018-09-12T18:18:16.571Z,40.63
2018-09-12T18:20:45.868Z,41.69
2018-09-12T18:23:15.003Z,42.54
2018-09-12T18:25:44.343Z,42.32
2018-09-12T18:28:13.348Z,42.78
2018-09-12T18:30:42.947Z,43.03
2018-09-12T18:33:12.139Z,42.07
2018-09-12T18:35:41.704Z,42.82
2018-09-12T18:38:10.957Z,43.40
2018-09-12T18:40:40.188Z,43.07
2018-09-12T18:43:09.381Z,42.70
2018-09-12T18:45:38.570Z,42.94
2018-09-12T18:48:08.088Z,43.13
2018-09-12T18:50:37.478Z,43.15
2018-09-12T18:53:06.680Z,43.10
2018-09-12T18:55:35.873Z,44.10
2018-09-12T18:58:06.316Z,45.03
2018-09-12T19:00:35.580Z,44.88
2018-09-12T19:03:04.490Z,44.61
2018-09-12T19:05:35.072Z,44.84
2018-09-12T19:08:04.606Z,44.65
2018-09-12T19:10:33.597Z,44.82
2018-09-12T19:13:03.347Z,44.85
2018-09-12T19:15:32.231Z,44.31
2018-09-12T19:18:01.481Z,44.28
2018-09-12T19:20:30.664Z,44.66
2018-09-12T19:22:59.965Z,44.07
2018-09-12T19:25:30.114Z,44.36
2018-09-12T19:28:00.362Z,44.32
2018-09-12T19:30:29.970Z,44.38
2018-09-12T19:32:58.887Z,44.05
2018-09-12T19:35:29.119Z,44.12
2018-09-12T19:37:57.906Z,44.08
2018-09-12T19:40:27.220Z,43.29
2018-09-12T19:42:56.490Z,43.86
2018-09-12T19:45:26.015Z,44.03
2018-09-12T19:47:56.024Z,44.05
2018-09-12T19:50:25.293Z,43.79
2018-09-12T19:52:55.002Z,44.25
2018-09-12T19:55:24.750Z,44.01
2018-09-12T19:57:53.627Z,43.80
2018-09-12T20:00:22.906Z,43.58
2018-09-12T20:02:52.132Z,43.12
2018-09-12T20:05:21.380Z,42.46
2018-09-12T20:07:51.129Z,43.38
2018-09-12T20:10:20.290Z,43.82
2018-09-12T20:12:49.559Z,43.58
2018-09-12T20:15:18.702Z,43.99
2018-09-12T20:17:47.952Z,42.99
2018-09-12T20:20:17.675Z,43.38
2018-09-12T20:22:47.031Z,43.78
2018-09-12T20:25:16.264Z,43.77
2018-09-12T20:27:45.629Z,44.19
2018-09-12T20:30:15.963Z,44.30
2018-09-12T20:32:45.203Z,44.68
2018-09-12T20:35:14.114Z,44.91
2018-09-12T20:37:43.494Z,45.57
2018-09-12T20:40:13.203Z,45.91
2018-09-12T20:42:42.695Z,46.52
2018-09-12T20:45:11.950Z,46.54
2018-09-12T20:47:41.135Z,46.50
2018-09-12T20:50:10.377Z,47.34
2018-09-12T20:52:39.580Z,47.71
2018-09-12T20:55:09.418Z,48.30
2018-09-12T20:57:38.651Z,48.22
2018-09-12T21:00:07.824Z,48.15
2018-09-12T21:02:36.802Z,47.75
2018-09-12T21:05:05.630Z,48.34
2018-09-12T21:07:35.698Z,48.21
2018-09-12T21:10:05.157Z,48.13
2018-09-12T21:12:34.702Z,48.16
2018-09-12T21:15:03.915Z,48.49
2018-09-12T21:17:33.104Z,48.89
2018-09-12T21:20:02.206Z,50.58
2018-09-12T21:22:31.418Z,52.11
2018-09-12T21:25:01.938Z,54.15
2018-09-12T21:27:31.043Z,54.53
2018-09-12T21:29:59.988Z,54.35
2018-09-12T21:32:28.988Z,53.88
2018-09-12T21:34:57.879Z,54.98
2018-09-12T21:37:27.410Z,54.10
2018-09-12T21:39:56.677Z,54.14
2018-09-12T21:42:25.942Z,54.66
2018-09-12T21:44:55.197Z,55.04
2018-09-12T21:47:24.370Z,55.67
2018-09-12T21:49:53.563Z,56.23
2018-09-12T21:52:22.824Z,57.01
2018-09-12T21:54:51.994Z,57.48
2018-09-12T21:57:21.098Z,58.26
2018-09-12T21:59:50.026Z,58.68
2018-09-12T22:02:18.862Z,58.81
2018-09-12T22:04:47.551Z,59.59
2018-09-12T22:07:16.587Z,59.56
2018-09-12T22:09:45.382Z,59.30
2018-09-12T22:12:14.411Z,59.85
2018-09-12T22:14:43.435Z,59.27
2018-09-12T22:17:12.163Z,59.77
2018-09-12T22:19:40.951Z,59.12
2018-09-12T22:22:09.691Z,59.14
2018-09-12T22:24:38.702Z,59.00
2018-09-12T22:27:07.596Z,59.23
2018-09-12T22:29:36.471Z,58.90
2018-09-12T22:32:05.134Z,59.16
2018-09-12T22:34:33.791Z,58.39
2018-09-12T22:37:02.699Z,58.41
2018-09-12T22:39:31.486Z,58.94
2018-09-12T22:42:00.397Z,59.21
2018-09-12T22:44:29.369Z,58.56
2018-09-12T22:46:58.353Z,59.46
2018-09-12T22:49:27.242Z,59.31
2018-09-12T22:51:56.076Z,58.47
2018-09-12T22:54:25.283Z,58.16
2018-09-12T22:56:54.039Z,58.15
2018-09-12T22:59:22.850Z,57.52
2018-09-12T23:01:51.737Z,57.60
2018-09-12T23:04:20.888Z,57.72
2018-09-12T23:06:49.845Z,57.35
2018-09-12T23:09:18.970Z,58.18
2018-09-12T23:11:47.799Z,57.38
2018-09-12T23:14:16.706Z,56.16
2018-09-12T23:16:45.844Z,55.70
2018-09-12T23:19:14.827Z,56.50
2018-09-12T23:21:43.770Z,56.70
2018-09-12T23:24:12.703Z,56.71
2018-09-12T23:26:41.865Z,58.11
2018-09-12T23:29:10.670Z,58.08
2018-09-12T23:31:39.351Z,58.66
2018-09-12T23:34:08.490Z,59.17
2018-09-12T23:36:37.692Z,58.43
2018-09-12T23:39:09.870Z,59.00
2018-09-12T23:41:38.922Z,59.60
2018-09-12T23:44:08.174Z,59.51
2018-09-12T23:46:37.428Z,59.16
2018-09-12T23:49:06.715Z,59.87
2018-09-12T23:51:35.753Z,61.84
2018-09-12T23:54:04.993Z,62.41
2018-09-12T23:56:33.846Z,62.94
2018-09-12T23:59:02.561Z,63.52
